Map

Track Data

SID SEASON NUMBER BASIN SUBBASIN NAME ISO_TIME NATURE LAT LON WMO_WIND WMO_PRES WMO_AGENCY TRACK_TYPE DIST2LAND LANDFALL IFLAG USA_AGENCY USA_ATCF_ID USA_LAT USA_LON USA_RECORD USA_STATUS USA_WIND USA_PRES USA_SSHS USA_R34_NE USA_R34_SE USA_R34_SW USA_R34_NW USA_R50_NE USA_R50_SE USA_R50_SW USA_R50_NW USA_R64_NE USA_R64_SE USA_R64_SW USA_R64_NW USA_POCI USA_ROCI USA_RMW USA_EYE TOKYO_LAT TOKYO_LON TOKYO_GRADE TOKYO_WIND TOKYO_PRES TOKYO_R50_DIR TOKYO_R50_LONG TOKYO_R50_SHORT TOKYO_R30_DIR TOKYO_R30_LONG TOKYO_R30_SHORT TOKYO_LAND CMA_LAT CMA_LON CMA_CAT CMA_WIND CMA_PRES HKO_LAT HKO_LON HKO_CAT HKO_WIND HKO_PRES NEWDELHI_LAT NEWDELHI_LON NEWDELHI_GRADE NEWDELHI_WIND NEWDELHI_PRES NEWDELHI_CI NEWDELHI_DP NEWDELHI_POCI REUNION_LAT REUNION_LON REUNION_TYPE REUNION_WIND REUNION_PRES REUNION_TNUM REUNION_CI REUNION_RMW REUNION_R34_NE REUNION_R34_SE REUNION_R34_SW REUNION_R34_NW REUNION_R50_NE REUNION_R50_SE REUNION_R50_SW REUNION_R50_NW REUNION_R64_NE REUNION_R64_SE REUNION_R64_SW REUNION_R64_NW BOM_LAT BOM_LON BOM_TYPE BOM_WIND BOM_PRES BOM_TNUM BOM_CI BOM_RMW BOM_R34_NE BOM_R34_SE BOM_R34_SW BOM_R34_NW BOM_R50_NE BOM_R50_SE BOM_R50_SW BOM_R50_NW BOM_R64_NE BOM_R64_SE BOM_R64_SW BOM_R64_NW BOM_ROCI BOM_POCI BOM_EYE BOM_POS_METHOD BOM_PRES_METHOD NADI_LAT NADI_LON NADI_CAT NADI_WIND NADI_PRES WELLINGTON_LAT WELLINGTON_LON WELLINGTON_WIND WELLINGTON_PRES DS824_LAT DS824_LON DS824_STAGE DS824_WIND DS824_PRES TD9636_LAT TD9636_LON TD9636_STAGE TD9636_WIND TD9636_PRES TD9635_LAT TD9635_LON TD9635_WIND TD9635_PRES TD9635_ROCI NEUMANN_LAT NEUMANN_LON NEUMANN_CLASS NEUMANN_WIND NEUMANN_PRES MLC_LAT MLC_LON MLC_CLASS MLC_WIND MLC_PRES USA_GUST BOM_GUST BOM_GUST_PER REUNION_GUST REUNION_GUST_PER USA_SEAHGT USA_SEARAD_NE USA_SEARAD_SE USA_SEARAD_SW USA_SEARAD_NW STORM_SPEED STORM_DIR
1903230N23122 1903 38 WP MM NOT_NAMED 1903-08-18 04:00:00 NR 22.7000 122.000 main 75 46 __________O___ -1 22.7000 122.000 4 8 311
1903230N23122 1903 38 WP MM NOT_NAMED 1903-08-18 06:00:00 NR 22.8828 121.771 main 46 0 __________P___ -1 22.8828 121.771 4 8 311
1903230N23122 1903 38 WP MM NOT_NAMED 1903-08-18 09:00:00 NR 23.1569 121.432 main 0 0 __________P___ -1 23.1569 121.432 4 8 312
1903230N23122 1903 38 WP MM NOT_NAMED 1903-08-18 12:00:00 NR 23.4316 121.105 main 0 0 __________P___ -1 23.4316 121.105 4 8 313
1903230N23122 1903 38 WP MM NOT_NAMED 1903-08-18 15:00:00 NR 23.7075 120.797 main 0 0 __________P___ -1 23.7075 120.797 4 8 315
1903230N23122 1903 38 WP MM NOT_NAMED 1903-08-18 16:00:00 NR 23.8000 120.700 main 0 0 __________O___ -1 23.8000 120.700 4 8 317
1903230N23122 1903 38 WP MM NOT_NAMED 1903-08-18 18:00:00 NR 23.9861 120.515 main 0 0 __________P___ -1 23.9861 120.515 4 8 319
1903230N23122 1903 38 WP MM NOT_NAMED 1903-08-18 21:00:00 NR 24.2715 120.251 main 23 30 __________P___ -1 24.2715 120.251 4 8 320
1903230N23122 1903 38 WP MM NOT_NAMED 1903-08-19 00:00:00 NR 24.5702 119.986 main 64 45 __________P___ -1 24.5702 119.986 4 8 321
1903230N23122 1903 38 WP MM NOT_NAMED 1903-08-19 03:00:00 NR 24.8885 119.702 main 45 33 __________P___ -1 24.8885 119.702 4 8 321
1903230N23122 1903 38 WP MM NOT_NAMED 1903-08-19 04:00:00 NR 25.0000 119.600 main 33 10 __________O___ -1 25.0000 119.600 4 9 319
1903230N23122 1903 38 WP MM NOT_NAMED 1903-08-19 06:00:00 NR 25.2277 119.373 main 10 0 __________P___ -1 25.2277 119.373 4 10 318
1903230N23122 1903 38 WP MM NOT_NAMED 1903-08-19 09:00:00 NR 25.5879 119.007 main 0 0 __________P___ -1 25.5879 119.007 4 10 318
1903230N23122 1903 38 WP MM NOT_NAMED 1903-08-19 12:00:00 NR 25.9679 118.621 main 0 0 __________P___ -1 25.9679 118.621 4 10 318
1903230N23122 1903 38 WP MM NOT_NAMED 1903-08-19 15:00:00 NR 26.3646 118.230 main 0 0 __________P___ -1 26.3646 118.230 4 11 319
1903230N23122 1903 38 WP MM NOT_NAMED 1903-08-19 16:00:00 NR 26.5000 118.100 main 0 0 __________O___ -1 26.5000 118.100 2 11 320
1903230N23122 1903 38 WP MM NOT_NAMED 1903-08-19 18:00:00 NR 26.7750 117.844 main 0 0 __________P___ -1 26.7750 117.844 2 11 321
1903230N23122 1903 38 WP MM NOT_NAMED 1903-08-19 21:00:00 NR 27.1959 117.467 main 0 0 __________P___ -1 27.1959 117.467 2 11 322
1903230N23122 1903 38 WP MM NOT_NAMED 1903-08-20 00:00:00 NR 27.6241 117.094 main 0 0 __________P___ -1 27.6241 117.094 2 11 323
1903230N23122 1903 38 WP MM NOT_NAMED 1903-08-20 03:00:00 NR 28.0559 116.724 main 0 0 __________P___ -1 28.0559 116.724 2 11 323
1903230N23122 1903 38 WP MM NOT_NAMED 1903-08-20 04:00:00 NR 28.2000 116.600 main 0 __________O___ -1 28.2000 116.600 2 11 323

Digital Typhoon Data and Search

About IBTrACS Database

This database is a web-friendly format of International Best Track Archive for Climate Stewardship (IBTrACS), a global best track data archive curated by NOAA dating back to 1842.

Updated: 2021-10-08